Time;durP1;ratioP1;P1;durP2;ratioP2;P2;SDS_P1;SDS_P2;PMS_P1;PMS_P2;Temp;Humidity;BMP_temperature;BMP_pressure;BME280_temperature;BME280_humidity;BME280_pressure;Samples;Min_cycle;Max_cycle;Signal;HPM_P1;HPM_P2
2023/05/17 00:02:18;;;;;;;8.73;1.93;;;12.60;40.90;;;;;;5093409;28;20538;-53
2023/05/17 00:04:46;;;;;;;3.13;2.10;;;12.60;40.90;;;;;;5093235;28;20626;-53
2023/05/17 00:07:12;;;;;;;4.57;2.33;;;12.50;40.90;;;;;;5091744;28;20168;-53
2023/05/17 00:09:38;;;;;;;3.27;2.17;;;12.50;40.80;;;;;;5092686;28;20187;-53
2023/05/17 00:12:04;;;;;;;6.70;2.10;;;12.40;40.70;;;;;;5092809;28;20456;-53
2023/05/17 00:14:30;;;;;;;5.00;2.50;;;12.30;40.70;;;;;;5093322;28;20164;-53
2023/05/17 00:16:55;;;;;;;3.03;2.10;;;12.30;41.00;;;;;;5092959;28;20229;-53
2023/05/17 00:19:21;;;;;;;8.30;2.07;;;12.30;41.00;;;;;;5092733;28;20247;-53
2023/05/17 00:21:47;;;;;;;3.20;1.93;;;12.30;41.00;;;;;;5092782;28;20184;-53
2023/05/17 00:24:13;;;;;;;5.20;2.80;;;12.30;41.20;;;;;;5092883;28;20477;-53
2023/05/17 00:26:39;;;;;;;5.28;2.20;;;12.30;41.30;;;;;;5092942;28;20554;-53
2023/05/17 00:29:05;;;;;;;3.10;2.30;;;12.30;41.10;;;;;;5092744;28;20238;-53
2023/05/17 00:31:30;;;;;;;3.00;2.50;;;12.20;41.30;;;;;;5092635;28;20279;-53
2023/05/17 00:33:56;;;;;;;3.53;1.97;;;12.20;41.20;;;;;;5092694;28;20164;-53
2023/05/17 00:36:22;;;;;;;12.03;2.67;;;12.20;41.20;;;;;;5092561;28;20645;-53
2023/05/17 00:38:48;;;;;;;3.78;1.90;;;12.20;41.30;;;;;;5092641;28;20217;-53
2023/05/17 00:41:13;;;;;;;3.40;2.90;;;12.10;41.30;;;;;;5092550;28;20208;-53
2023/05/17 00:43:39;;;;;;;4.90;2.13;;;12.10;41.50;;;;;;5092627;28;20174;-53
2023/05/17 00:46:05;;;;;;;2.40;2.00;;;12.10;41.70;;;;;;5092505;28;20575;-53
2023/05/17 00:48:32;;;;;;;5.63;1.95;;;12.10;41.60;;;;;;5091329;28;20184;-53
2023/05/17 00:50:58;;;;;;;2.05;1.60;;;12.00;41.40;;;;;;5074168;28;20191;-53
2023/05/17 00:53:25;;;;;;;2.55;2.33;;;12.00;41.40;;;;;;5092445;28;20171;-53
2023/05/17 00:55:52;;;;;;;5.20;2.67;;;12.00;41.60;;;;;;5092349;28;20228;-53
2023/05/17 00:58:18;;;;;;;6.00;2.25;;;12.00;42.40;;;;;;5092348;28;20172;-53
2023/05/17 01:00:44;;;;;;;3.47;2.45;;;12.00;41.70;;;;;;5092041;28;20210;-53
2023/05/17 01:03:10;;;;;;;4.70;2.00;;;12.00;41.70;;;;;;5092244;28;20178;-53
2023/05/17 01:05:36;;;;;;;3.73;2.13;;;12.00;41.80;;;;;;5092119;28;20274;-53
2023/05/17 01:08:01;;;;;;;3.23;2.53;;;11.90;42.00;;;;;;5092586;28;20634;-53
2023/05/17 01:11:02;;;;;;;6.60;3.00;;;11.90;42.00;;;;;;5091910;28;20219;-53
2023/05/17 01:13:47;;;;;;;2.50;1.90;;;11.90;41.60;;;;;;5091913;28;20908;-53
2023/05/17 01:16:21;;;;;;;3.13;2.30;;;11.90;41.60;;;;;;5092332;28;20202;-53
2023/05/17 01:19:10;;;;;;;3.60;2.30;;;11.80;41.80;;;;;;5092382;28;20277;-53
2023/05/17 01:21:55;;;;;;;7.25;2.90;;;11.80;41.70;;;;;;5091979;28;20200;-53
2023/05/17 01:24:58;;;;;;;5.03;2.53;;;11.70;41.70;;;;;;5092156;28;20182;-53
2023/05/17 01:27:27;;;;;;;7.28;2.42;;;11.80;41.40;;;;;;5083982;28;20240;-53
2023/05/17 01:29:56;;;;;;;5.15;2.45;;;11.70;41.20;;;;;;5091911;28;20164;-53
2023/05/17 01:32:22;;;;;;;4.75;2.20;;;11.80;41.00;;;;;;5092361;28;20176;-53
2023/05/17 01:34:48;;;;;;;5.30;2.35;;;11.80;41.20;;;;;;5091887;28;20654;-53
2023/05/17 01:37:14;;;;;;;4.60;3.03;;;11.80;40.80;;;;;;5091807;28;20199;-53
2023/05/17 01:39:40;;;;;;;4.63;2.17;;;11.80;40.70;;;;;;5091566;28;20406;-53
2023/05/17 01:42:12;;;;;;;4.82;2.90;;;11.90;40.90;;;;;;5091952;28;20207;-54
2023/05/17 01:44:56;;;;;;;2.80;2.00;;;11.90;40.80;;;;;;5091806;28;20167;-55
2023/05/17 01:47:53;;;;;;;6.22;2.78;;;12.00;40.70;;;;;;5091793;28;20180;-52
2023/05/17 01:50:24;;;;;;;5.20;1.95;;;12.00;40.40;;;;;;5090336;28;20211;-55
2023/05/17 01:52:54;;;;;;;3.38;2.10;;;12.00;40.30;;;;;;5091753;28;20175;-55
2023/05/17 01:55:26;;;;;;;5.95;2.42;;;12.00;40.10;;;;;;5091713;28;20180;-55
2023/05/17 01:57:54;;;;;;;8.90;3.15;;;12.00;40.10;;;;;;5091674;28;20267;-55
2023/05/17 02:00:23;;;;;;;7.40;2.60;;;12.00;40.00;;;;;;5091330;28;20248;-55
2023/05/17 02:02:49;;;;;;;5.25;2.95;;;12.00;39.90;;;;;;5091619;28;20172;-55
2023/05/17 02:05:15;;;;;;;5.00;2.45;;;12.00;39.70;;;;;;5091467;28;20569;-55
2023/05/17 02:07:41;;;;;;;4.27;3.03;;;11.90;39.80;;;;;;5091922;28;20195;-54
2023/05/17 02:10:07;;;;;;;9.10;2.93;;;12.00;40.00;;;;;;5091486;28;20270;-55
2023/05/17 02:12:33;;;;;;;2.33;1.95;;;11.90;40.00;;;;;;5091601;28;20217;-55
2023/05/17 02:14:58;;;;;;;3.77;1.83;;;12.00;40.00;;;;;;5092511;28;20250;-56
2023/05/17 02:17:24;;;;;;;6.57;2.10;;;12.00;39.80;;;;;;5095295;28;20464;-55
2023/05/17 02:19:50;;;;;;;4.30;2.50;;;12.00;39.80;;;;;;5095002;28;20172;-55
2023/05/17 02:22:16;;;;;;;3.63;2.43;;;12.00;39.90;;;;;;5095193;28;20180;-54
2023/05/17 02:24:41;;;;;;;4.30;2.43;;;12.00;39.80;;;;;;5095302;28;20178;-55
2023/05/17 02:27:07;;;;;;;8.83;2.80;;;12.00;39.70;;;;;;5095338;28;20477;-55
2023/05/17 02:29:33;;;;;;;6.83;2.20;;;12.00;39.80;;;;;;5093520;28;20646;-53
2023/05/17 02:31:59;;;;;;;6.37;3.17;;;11.90;39.80;;;;;;5094978;28;20856;-55
2023/05/17 02:34:25;;;;;;;10.38;3.35;;;11.90;39.80;;;;;;5094951;28;20398;-55
2023/05/17 02:36:51;;;;;;;5.37;2.77;;;11.90;39.80;;;;;;5094930;28;20179;-55
2023/05/17 02:39:17;;;;;;;9.23;3.10;;;11.90;40.00;;;;;;5095023;28;20406;-55
2023/05/17 02:41:43;;;;;;;3.93;2.73;;;11.90;40.00;;;;;;5094989;28;20199;-53
2023/05/17 02:44:09;;;;;;;5.30;2.73;;;11.90;40.30;;;;;;5094763;28;20401;-53
2023/05/17 02:46:35;;;;;;;7.75;2.50;;;11.90;40.40;;;;;;5094683;28;20446;-53
2023/05/17 02:49:00;;;;;;;4.70;3.80;;;11.80;40.50;;;;;;5094775;28;20225;-53
2023/05/17 02:51:26;;;;;;;5.70;3.10;;;11.80;40.50;;;;;;5094305;28;20187;-53
2023/05/17 02:53:52;;;;;;;3.63;2.20;;;11.70;40.90;;;;;;5094739;28;20182;-53
2023/05/17 02:56:18;;;;;;;2.73;1.93;;;11.70;41.00;;;;;;5094506;28;20214;-53
2023/05/17 02:58:43;;;;;;;5.00;2.30;;;11.70;41.10;;;;;;5094678;28;20414;-53
2023/05/17 03:01:09;;;;;;;5.23;2.53;;;11.70;41.10;;;;;;5094231;28;20199;-54
2023/05/17 03:03:35;;;;;;;4.57;2.70;;;11.70;40.70;;;;;;5094328;28;20254;-53
2023/05/17 03:06:01;;;;;;;6.70;3.10;;;11.70;40.50;;;;;;5094291;28;20456;-54
2023/05/17 03:08:27;;;;;;;3.60;2.47;;;11.70;40.60;;;;;;5093034;28;20183;-52
2023/05/17 03:10:53;;;;;;;3.60;2.10;;;11.60;40.50;;;;;;5093880;28;20684;-53
2023/05/17 03:13:18;;;;;;;4.20;2.30;;;11.60;40.60;;;;;;5094196;28;20172;-54
2023/05/17 03:15:44;;;;;;;6.93;3.80;;;11.50;40.70;;;;;;5094500;28;20179;-53
2023/05/17 03:18:10;;;;;;;3.20;1.93;;;11.50;41.30;;;;;;5094435;28;20588;-53
2023/05/17 03:20:36;;;;;;;4.67;2.60;;;11.40;40.90;;;;;;5094091;28;20483;-53
2023/05/17 03:23:01;;;;;;;3.73;2.43;;;11.40;41.10;;;;;;5093944;28;20711;-52
2023/05/17 03:25:27;;;;;;;7.67;3.53;;;11.40;41.10;;;;;;5093620;28;20195;-54
2023/05/17 03:27:53;;;;;;;4.93;2.37;;;11.40;41.30;;;;;;5094108;28;20171;-53
2023/05/17 03:30:19;;;;;;;4.30;2.40;;;11.30;41.10;;;;;;5093776;28;20190;-55
2023/05/17 03:32:45;;;;;;;3.30;2.87;;;11.30;41.50;;;;;;5093965;28;20948;-53
2023/05/17 03:35:11;;;;;;;3.10;2.37;;;11.30;41.60;;;;;;5093797;28;20764;-54
2023/05/17 03:37:36;;;;;;;2.67;2.20;;;11.20;41.60;;;;;;5093852;28;20434;-51
2023/05/17 03:40:02;;;;;;;5.50;3.20;;;11.10;41.70;;;;;;5092080;28;20226;-55
2023/05/17 03:42:28;;;;;;;10.70;2.10;;;11.10;41.60;;;;;;5093512;28;20168;-53
2023/05/17 03:44:54;;;;;;;5.87;2.70;;;11.10;41.80;;;;;;5093673;28;20406;-53
2023/05/17 03:47:22;;;;;;;4.67;3.17;;;11.10;41.80;;;;;;5093392;28;20656;-55
2023/05/17 03:49:48;;;;;;;3.28;2.83;;;11.10;42.00;;;;;;5093094;28;20198;-55
2023/05/17 03:52:14;;;;;;;4.85;2.90;;;11.20;42.00;;;;;;5093325;28;20172;-51
2023/05/17 03:54:40;;;;;;;4.93;3.00;;;11.20;42.20;;;;;;5093324;28;20172;-52
2023/05/17 03:57:06;;;;;;;6.20;2.93;;;11.20;42.10;;;;;;5093123;28;20798;-55
2023/05/17 03:59:32;;;;;;;3.67;3.27;;;11.20;42.20;;;;;;5093290;28;20270;-53
2023/05/17 04:01:57;;;;;;;3.57;2.73;;;11.20;42.20;;;;;;5093143;28;20279;-52
2023/05/17 04:04:23;;;;;;;3.53;2.73;;;11.30;42.40;;;;;;5093370;28;20176;-54
2023/05/17 04:06:49;;;;;;;12.37;3.40;;;11.30;42.50;;;;;;5093115;28;20577;-55
2023/05/17 04:09:15;;;;;;;4.63;3.60;;;11.30;42.30;;;;;;5091557;28;20673;-53
2023/05/17 04:11:42;;;;;;;7.70;2.67;;;11.40;42.30;;;;;;5092787;28;20196;-52
2023/05/17 04:14:07;;;;;;;8.93;3.53;;;11.40;42.20;;;;;;5093245;28;20628;-54
2023/05/17 04:16:33;;;;;;;7.23;3.40;;;11.50;42.40;;;;;;5093047;28;20251;-55
2023/05/17 04:18:59;;;;;;;5.27;3.77;;;11.50;42.40;;;;;;5093171;28;20176;-53
2023/05/17 04:21:25;;;;;;;6.13;3.20;;;11.60;42.30;;;;;;5092682;28;20226;-54
2023/05/17 04:23:51;;;;;;;8.32;3.70;;;11.60;42.40;;;;;;5092802;28;20172;-54
2023/05/17 04:26:17;;;;;;;5.70;3.90;;;11.70;42.20;;;;;;5092637;28;20699;-52
2023/05/17 04:28:43;;;;;;;8.35;4.03;;;11.80;42.20;;;;;;5074725;28;20406;-54
2023/05/17 04:31:09;;;;;;;6.20;3.42;;;11.90;42.20;;;;;;5092614;28;20192;-51
2023/05/17 04:33:36;;;;;;;6.77;3.00;;;11.90;42.10;;;;;;5092878;28;20179;-52
2023/05/17 04:36:02;;;;;;;6.85;4.22;;;12.10;42.10;;;;;;5092806;28;20420;-54
2023/05/17 04:38:29;;;;;;;5.88;3.80;;;12.20;42.20;;;;;;5090689;28;20263;-51
2023/05/17 04:41:04;;;;;;;6.32;3.90;;;12.20;42.30;;;;;;5092137;28;20199;-55
2023/05/17 04:43:31;;;;;;;10.32;4.45;;;12.40;42.30;;;;;;5092742;28;20179;-53
2023/05/17 04:45:57;;;;;;;8.20;5.47;;;12.40;42.20;;;;;;5092391;28;20257;-51
2023/05/17 04:48:25;;;;;;;5.43;4.65;;;12.50;42.40;;;;;;5092653;28;20582;-54
2023/05/17 04:50:51;;;;;;;9.65;5.25;;;12.70;42.20;;;;;;5092081;28;20195;-54
2023/05/17 04:53:17;;;;;;;11.85;4.10;;;12.80;42.00;;;;;;5092138;28;20178;-51
2023/05/17 04:55:43;;;;;;;5.23;3.47;;;13.00;41.90;;;;;;5092444;28;20172;-54
2023/05/17 04:58:09;;;;;;;9.70;4.32;;;13.10;41.70;;;;;;5091237;28;20519;-54
2023/05/17 05:00:35;;;;;;;6.53;3.23;;;13.20;41.40;;;;;;5091946;28;20199;-51
2023/05/17 05:03:03;;;;;;;8.93;3.87;;;13.40;41.40;;;;;;5092378;28;20437;-51
2023/05/17 05:05:30;;;;;;;6.90;3.63;;;13.40;40.00;;;;;;5092066;28;20451;-54
2023/05/17 05:07:56;;;;;;;9.50;4.30;;;13.50;40.70;;;;;;5090724;28;20184;-51
2023/05/17 05:10:22;;;;;;;9.45;3.78;;;13.50;40.60;;;;;;5091899;28;20208;-52
2023/05/17 05:12:48;;;;;;;9.98;3.38;;;13.50;40.70;;;;;;5091960;28;20694;-54
2023/05/17 05:15:14;;;;;;;6.77;3.80;;;13.60;40.70;;;;;;5091952;28;20175;-54
2023/05/17 05:17:40;;;;;;;10.68;4.03;;;13.70;40.90;;;;;;5090606;28;20927;-52
2023/05/17 05:20:07;;;;;;;4.77;3.67;;;13.80;40.20;;;;;;5091689;28;20179;-54
2023/05/17 05:22:33;;;;;;;8.23;3.85;;;13.90;39.70;;;;;;5091845;28;20410;-53
2023/05/17 05:24:59;;;;;;;6.83;4.70;;;13.90;39.70;;;;;;5092044;28;20180;-52
2023/05/17 05:27:25;;;;;;;9.43;4.67;;;13.90;39.60;;;;;;5092011;28;20168;-54
2023/05/17 05:29:50;;;;;;;8.40;4.20;;;13.90;40.20;;;;;;5091604;28;20455;-54
2023/05/17 05:32:16;;;;;;;12.73;4.40;;;14.00;39.50;;;;;;5091981;28;20416;-53
2023/05/17 05:34:42;;;;;;;12.93;5.50;;;14.00;39.20;;;;;;5091848;28;21098;-52
2023/05/17 05:37:08;;;;;;;8.30;4.00;;;13.90;39.80;;;;;;5091713;28;20409;-54
2023/05/17 05:39:34;;;;;;;6.87;4.23;;;14.00;40.00;;;;;;5091596;28;20452;-54
2023/05/17 05:42:00;;;;;;;12.17;4.60;;;14.10;40.30;;;;;;5091697;28;20199;-51
2023/05/17 05:44:26;;;;;;;7.60;4.88;;;14.20;40.00;;;;;;5091637;28;20218;-55
2023/05/17 05:46:51;;;;;;;11.83;5.07;;;14.30;40.20;;;;;;5091811;28;20232;-52
2023/05/17 05:49:18;;;;;;;8.70;3.83;;;14.40;39.50;;;;;;5091556;28;20176;-53
2023/05/17 05:51:44;;;;;;;8.02;3.80;;;14.50;39.70;;;;;;5094098;28;21077;-54
2023/05/17 05:54:12;;;;;;;10.00;4.20;;;14.50;38.80;;;;;;5095635;28;20216;-55
2023/05/17 05:56:37;;;;;;;8.15;4.90;;;14.50;39.20;;;;;;5095741;28;20187;-51
2023/05/17 05:59:03;;;;;;;14.73;5.53;;;14.50;39.50;;;;;;5095405;28;20184;-54
2023/05/17 06:01:29;;;;;;;8.47;4.87;;;14.60;40.30;;;;;;5095410;28;20267;-54
2023/05/17 06:03:54;;;;;;;12.80;6.20;;;14.60;39.40;;;;;;5095412;28;20650;-51
2023/05/17 06:06:20;;;;;;;11.80;4.67;;;14.70;40.10;;;;;;5095643;28;20713;-54
2023/05/17 06:08:46;;;;;;;14.10;4.83;;;14.90;40.30;;;;;;5094116;28;20175;-55
2023/05/17 06:11:13;;;;;;;13.10;5.27;;;15.00;39.70;;;;;;5094962;28;20762;-52
2023/05/17 06:13:39;;;;;;;11.30;4.57;;;15.10;39.30;;;;;;5093934;28;20408;-51
2023/05/17 06:16:05;;;;;;;8.80;4.50;;;15.10;39.30;;;;;;5095256;28;20544;-54
2023/05/17 06:18:31;;;;;;;19.58;6.22;;;15.00;39.30;;;;;;5095042;28;20409;-52
2023/05/17 06:20:58;;;;;;;10.82;4.60;;;15.00;39.00;;;;;;5095131;28;20597;-52
2023/05/17 06:23:24;;;;;;;16.35;6.55;;;15.00;39.00;;;;;;5095120;28;20217;-51
2023/05/17 06:25:51;;;;;;;7.45;4.53;;;14.90;39.20;;;;;;5093752;28;20705;-55
2023/05/17 06:28:16;;;;;;;8.95;5.05;;;14.90;39.70;;;;;;5095056;28;20219;-53
2023/05/17 06:30:42;;;;;;;17.30;5.00;;;15.10;39.80;;;;;;5094999;28;20761;-53
2023/05/17 06:33:08;;;;;;;6.57;5.87;;;15.10;39.90;;;;;;5094873;28;20168;-55
2023/05/17 06:35:34;;;;;;;12.23;4.73;;;15.20;40.20;;;;;;5094888;28;20442;-52
2023/05/17 06:38:00;;;;;;;12.30;4.93;;;15.40;39.90;;;;;;5094951;28;20172;-53
2023/05/17 06:40:26;;;;;;;7.40;4.33;;;15.60;39.90;;;;;;5094800;28;20206;-55
2023/05/17 06:42:52;;;;;;;10.83;5.23;;;15.70;39.50;;;;;;5094720;28;20413;-51
2023/05/17 06:45:18;;;;;;;8.33;5.00;;;15.90;39.80;;;;;;5094579;28;20573;-52
2023/05/17 06:47:43;;;;;;;10.00;6.30;;;16.00;38.90;;;;;;5094536;28;20183;-54
2023/05/17 06:50:10;;;;;;;7.40;4.40;;;16.10;39.50;;;;;;5094585;28;20458;-54
2023/05/17 06:52:36;;;;;;;11.07;5.32;;;16.20;38.90;;;;;;5094507;28;20186;-52
2023/05/17 06:55:02;;;;;;;16.95;6.18;;;16.30;38.60;;;;;;5093274;28;20176;-51
2023/05/17 06:57:27;;;;;;;11.77;5.13;;;16.40;38.80;;;;;;5094406;28;20222;-53
2023/05/17 06:59:53;;;;;;;10.43;5.23;;;16.40;38.70;;;;;;5094471;28;20455;-53
2023/05/17 07:02:19;;;;;;;8.00;4.87;;;16.50;38.60;;;;;;5094091;28;20202;-53
2023/05/17 07:04:45;;;;;;;12.05;5.15;;;16.40;38.40;;;;;;5094256;28;20168;-51
2023/05/17 07:07:11;;;;;;;14.07;5.30;;;16.40;38.60;;;;;;5093081;28;20767;-54
2023/05/17 07:09:37;;;;;;;6.07;4.87;;;16.50;38.30;;;;;;5093906;28;20176;-55
2023/05/17 07:12:04;;;;;;;10.43;4.87;;;16.50;38.40;;;;;;5094432;28;20244;-52
2023/05/17 07:14:30;;;;;;;10.55;4.43;;;16.60;38.50;;;;;;5094457;28;20413;-52
2023/05/17 07:16:56;;;;;;;9.17;5.83;;;16.70;38.90;;;;;;5093983;28;20176;-54
2023/05/17 07:19:25;;;;;;;10.90;4.85;;;16.90;38.60;;;;;;5093747;28;20455;-52
2023/05/17 07:21:51;;;;;;;13.15;5.95;;;17.00;38.10;;;;;;5094005;28;20273;-52
2023/05/17 07:24:16;;;;;;;13.53;6.33;;;17.00;36.70;;;;;;5093877;28;20550;-55
2023/05/17 07:26:42;;;;;;;12.83;5.27;;;17.10;37.40;;;;;;5093698;28;20458;-52
2023/05/17 07:29:08;;;;;;;18.53;5.90;;;17.10;37.60;;;;;;5094029;28;21206;-52
2023/05/17 07:31:34;;;;;;;6.23;5.10;;;17.20;37.40;;;;;;5093722;28;20590;-54
2023/05/17 07:34:00;;;;;;;8.63;5.30;;;17.20;37.20;;;;;;5093903;28;20171;-51
2023/05/17 07:36:29;;;;;;;7.00;4.83;;;17.20;37.00;;;;;;5093656;28;20191;-53
2023/05/17 07:38:56;;;;;;;11.38;4.78;;;17.30;37.20;;;;;;5093598;28;20653;-52
2023/05/17 07:41:22;;;;;;;11.70;6.03;;;17.20;36.30;;;;;;5092241;28;20196;-53
2023/05/17 07:43:48;;;;;;;7.95;4.90;;;17.20;36.60;;;;;;5093437;28;20554;-52
2023/05/17 07:46:14;;;;;;;8.77;5.07;;;17.10;36.80;;;;;;5092043;28;20292;-55
2023/05/17 07:48:40;;;;;;;8.40;5.37;;;17.10;37.10;;;;;;5093438;28;20262;-52
2023/05/17 07:51:06;;;;;;;15.27;4.83;;;17.30;36.90;;;;;;5093456;28;20184;-52
2023/05/17 07:53:32;;;;;;;5.83;4.77;;;17.50;37.20;;;;;;5092153;28;20171;-51
2023/05/17 07:55:57;;;;;;;10.03;3.93;;;17.70;37.00;;;;;;5093304;28;20414;-53
2023/05/17 07:58:23;;;;;;;9.37;4.77;;;17.80;35.90;;;;;;5093287;28;20485;-54
2023/05/17 08:00:49;;;;;;;13.33;4.40;;;17.80;34.90;;;;;;5092834;28;20523;-53
2023/05/17 08:03:15;;;;;;;11.23;4.03;;;17.90;35.20;;;;;;5093241;28;20164;-55
2023/05/17 08:05:41;;;;;;;7.23;3.40;;;18.10;36.10;;;;;;5092983;28;20207;-53
2023/05/17 08:08:06;;;;;;;9.37;4.17;;;18.30;35.30;;;;;;5093273;28;20179;-53
2023/05/17 08:10:34;;;;;;;13.63;5.70;;;18.50;35.10;;;;;;5092707;28;20985;-55
2023/05/17 08:13:00;;;;;;;8.60;4.30;;;18.60;34.00;;;;;;5092126;28;20182;-53
2023/05/17 08:15:27;;;;;;;9.20;4.43;;;18.60;33.70;;;;;;5093174;28;20172;-52
2023/05/17 08:17:55;;;;;;;6.22;3.70;;;18.60;32.80;;;;;;5092909;28;20195;-52
2023/05/17 08:20:20;;;;;;;7.47;4.20;;;18.50;33.90;;;;;;5092615;28;20195;-55
2023/05/17 08:22:46;;;;;;;9.33;4.33;;;18.30;32.70;;;;;;5093114;28;20171;-55
2023/05/17 08:25:12;;;;;;;10.60;3.63;;;18.10;33.30;;;;;;5092666;28;20556;-53
2023/05/17 08:27:38;;;;;;;12.90;4.70;;;18.10;33.40;;;;;;5092647;28;20231;-54
2023/05/17 08:30:06;;;;;;;12.32;3.75;;;18.30;33.80;;;;;;5092792;28;20853;-53
2023/05/17 08:32:32;;;;;;;8.80;3.63;;;18.60;33.20;;;;;;5095405;28;20180;-53
2023/05/17 08:34:58;;;;;;;9.40;4.53;;;18.70;33.60;;;;;;5095646;28;20179;-53
2023/05/17 08:37:24;;;;;;;10.52;4.60;;;18.90;33.40;;;;;;5095578;28;20561;-55
2023/05/17 08:39:50;;;;;;;5.90;2.87;;;19.00;32.60;;;;;;5094586;28;20168;-51
2023/05/17 08:42:24;;;;;;;10.63;3.80;;;18.80;32.60;;;;;;5095095;28;20410;-52
2023/05/17 08:44:51;;;;;;;9.07;3.85;;;18.80;33.40;;;;;;5095010;28;20184;-53
2023/05/17 08:47:24;;;;;;;16.65;4.15;;;18.80;32.30;;;;;;5095197;28;20270;-52
2023/05/17 08:49:59;;;;;;;5.35;3.85;;;18.60;32.10;;;;;;5094432;28;20180;-53
2023/05/17 08:52:31;;;;;;;12.95;4.25;;;18.70;32.90;;;;;;5094041;28;20178;-51
2023/05/17 08:55:00;;;;;;;9.98;3.05;;;18.60;33.00;;;;;;5094491;28;20670;-52
2023/05/17 08:57:29;;;;;;;7.30;3.72;;;18.50;31.90;;;;;;5093403;28;20172;-53
2023/05/17 08:59:57;;;;;;;8.90;4.93;;;18.50;33.10;;;;;;5093904;28;20267;-52
2023/05/17 09:02:24;;;;;;;6.40;3.50;;;18.40;32.50;;;;;;5094425;28;20197;-51
2023/05/17 09:04:54;;;;;;;8.40;4.47;;;18.20;32.10;;;;;;5094303;28;20187;-54
2023/05/17 09:07:23;;;;;;;12.35;5.07;;;18.10;32.50;;;;;;5094810;28;20669;-52
2023/05/17 09:09:53;;;;;;;7.50;4.15;;;18.00;33.40;;;;;;5094070;28;20191;-52
2023/05/17 09:12:22;;;;;;;8.52;4.72;;;18.10;33.80;;;;;;5095736;28;20217;-53
2023/05/17 09:14:48;;;;;;;8.68;4.28;;;18.40;33.90;;;;;;5094955;28;20191;-55
2023/05/17 09:17:19;;;;;;;12.80;4.43;;;18.60;33.50;;;;;;5094543;28;20672;-52
2023/05/17 09:19:47;;;;;;;4.78;3.55;;;18.90;33.90;;;;;;5095223;28;20191;-52
2023/05/17 09:22:23;;;;;;;6.95;4.13;;;19.00;33.30;;;;;;5095124;28;20249;-53
2023/05/17 09:24:50;;;;;;;7.18;4.38;;;19.00;32.90;;;;;;5097607;28;20182;-55
2023/05/17 09:27:18;;;;;;;10.85;5.57;;;18.90;32.80;;;;;;5097829;28;20290;-55
2023/05/17 09:29:45;;;;;;;7.60;4.60;;;18.80;32.50;;;;;;5098620;28;20262;-52
2023/05/17 09:32:11;;;;;;;10.40;4.80;;;18.60;32.20;;;;;;5098462;28;20203;-53
2023/05/17 09:34:39;;;;;;;9.95;5.03;;;18.50;32.80;;;;;;5098133;28;20201;-56
2023/05/17 09:37:11;;;;;;;9.93;4.50;;;18.40;32.30;;;;;;5098193;28;20185;-55
2023/05/17 09:39:37;;;;;;;7.97;4.40;;;18.40;33.10;;;;;;5097113;28;20203;-53
2023/05/17 09:42:03;;;;;;;8.33;4.73;;;18.40;32.90;;;;;;5098729;28;20198;-53
2023/05/17 09:44:29;;;;;;;8.10;4.30;;;18.50;33.20;;;;;;5098442;28;20526;-56
2023/05/17 09:46:57;;;;;;;5.85;3.95;;;18.50;32.70;;;;;;5096503;28;20206;-56
2023/05/17 09:49:26;;;;;;;8.57;4.15;;;18.40;32.20;;;;;;5097683;28;20820;-52
2023/05/17 09:51:52;;;;;;;8.00;4.20;;;18.40;31.80;;;;;;5097598;28;20606;-55
2023/05/17 09:54:18;;;;;;;9.07;4.68;;;18.30;31.80;;;;;;5097890;28;20228;-54
2023/05/17 09:56:51;;;;;;;7.13;3.63;;;18.10;31.70;;;;;;5098526;28;20183;-53
2023/05/17 09:59:19;;;;;;;12.18;5.05;;;18.00;32.60;;;;;;5097879;28;20294;-51
2023/05/17 10:01:49;;;;;;;11.07;3.40;;;18.00;33.10;;;;;;5097751;28;20203;-54
2023/05/17 10:04:19;;;;;;;11.93;4.28;;;18.00;32.70;;;;;;5097298;28;20191;-56
2023/05/17 10:06:46;;;;;;;6.95;4.07;;;17.90;32.70;;;;;;5097363;28;20299;-55
2023/05/17 10:09:13;;;;;;;9.45;4.40;;;17.90;32.20;;;;;;5097260;28;20179;-56
2023/05/17 10:11:42;;;;;;;12.60;4.30;;;17.90;32.40;;;;;;5097182;28;20212;-55
2023/05/17 10:14:22;;;;;;;7.20;3.60;;;17.90;32.00;;;;;;5096854;28;20217;-55
2023/05/17 10:16:50;;;;;;;7.97;3.92;;;17.90;32.00;;;;;;5097180;28;20179;-56
2023/05/17 10:19:18;;;;;;;9.43;6.05;;;17.80;32.60;;;;;;5097208;28;20179;-54
2023/05/17 10:21:47;;;;;;;6.80;4.03;;;17.70;31.90;;;;;;5096729;28;20689;-55
2023/05/17 10:24:15;;;;;;;10.98;4.35;;;17.90;33.40;;;;;;5096015;28;20263;-55
2023/05/17 10:26:42;;;;;;;7.32;3.97;;;18.20;33.10;;;;;;5096193;28;20214;-56
2023/05/17 10:29:08;;;;;;;4.97;3.22;;;18.50;33.30;;;;;;5097512;28;20160;-54
2023/05/17 10:31:37;;;;;;;6.72;3.60;;;18.70;32.20;;;;;;5096662;28;20562;-56
2023/05/17 10:34:05;;;;;;;7.80;3.38;;;18.70;30.40;;;;;;5096809;28;20266;-55
2023/05/17 10:36:32;;;;;;;13.38;4.53;;;18.80;29.60;;;;;;5095504;28;20175;-55
2023/05/17 10:38:59;;;;;;;6.60;3.40;;;18.60;28.20;;;;;;5095193;28;20179;-55
2023/05/17 10:41:32;;;;;;;8.05;2.58;;;18.70;30.10;;;;;;5096798;28;20200;-57
2023/05/17 10:44:00;;;;;;;5.55;3.35;;;19.00;29.50;;;;;;5095606;28;20672;-53
2023/05/17 10:46:29;;;;;;;4.53;3.03;;;19.20;29.50;;;;;;5096553;28;20569;-55
2023/05/17 10:48:59;;;;;;;8.93;3.60;;;19.40;29.20;;;;;;5095523;28;20499;-55
2023/05/17 10:51:36;;;;;;;9.55;3.38;;;19.50;27.00;;;;;;5096559;28;20200;-57
2023/05/17 10:54:03;;;;;;;7.90;3.33;;;19.40;28.20;;;;;;5096710;28;20224;-56
2023/05/17 10:56:33;;;;;;;6.47;3.42;;;19.30;28.70;;;;;;5097000;28;20186;-54
2023/05/17 10:59:13;;;;;;;12.23;3.42;;;19.20;29.50;;;;;;5096724;28;20237;-55
2023/05/17 11:02:09;;;;;;;14.27;3.75;;;19.20;28.00;;;;;;5095652;28;20597;-55
2023/05/17 11:04:41;;;;;;;11.60;4.15;;;19.00;28.00;;;;;;5091556;28;20191;-53
2023/05/17 11:07:17;;;;;;;7.80;3.90;;;19.10;27.80;;;;;;5095941;28;20291;-55
2023/05/17 11:09:45;;;;;;;8.75;4.45;;;19.30;29.60;;;;;;5095649;28;20263;-54
2023/05/17 11:12:13;;;;;;;7.05;3.47;;;19.50;28.50;;;;;;5095842;28;20198;-55
2023/05/17 11:14:45;;;;;;;10.15;2.92;;;19.60;27.80;;;;;;5096311;28;20195;-55
2023/05/17 11:17:16;;;;;;;8.02;2.95;;;19.70;27.20;;;;;;5096047;28;20180;-53
2023/05/17 11:20:27;;;;;;;11.88;3.75;;;19.80;26.70;;;;;;5096256;28;20202;-53
2023/05/17 11:22:53;;;;;;;6.63;4.40;;;19.90;28.00;;;;;;5095948;28;20182;-55
2023/05/17 11:25:20;;;;;;;11.87;3.83;;;20.10;28.00;;;;;;5096020;28;20263;-55
2023/05/17 11:27:48;;;;;;;13.30;4.13;;;20.30;27.50;;;;;;5096040;28;20191;-51
2023/05/17 11:30:18;;;;;;;8.80;3.80;;;20.50;28.40;;;;;;5095751;28;20202;-52
2023/05/17 11:32:53;;;;;;;7.65;3.20;;;20.80;28.10;;;;;;5095357;28;20176;-54
2023/05/17 11:35:25;;;;;;;7.10;3.90;;;21.00;24.60;;;;;;5095543;28;20164;-53
2023/05/17 11:37:53;;;;;;;8.02;3.95;;;21.10;24.10;;;;;;5095350;28;20156;-54
2023/05/17 11:40:28;;;;;;;4.97;2.38;;;21.00;23.60;;;;;;5095416;28;20260;-53
2023/05/17 11:43:14;;;;;;;6.00;2.83;;;21.20;24.70;;;;;;5095304;28;20214;-51
2023/05/17 11:45:46;;;;;;;9.43;3.00;;;21.30;27.30;;;;;;5095496;28;20199;-56
2023/05/17 11:48:12;;;;;;;6.13;2.80;;;21.40;26.90;;;;;;5095846;28;20414;-54
2023/05/17 11:50:39;;;;;;;4.17;3.00;;;21.40;26.40;;;;;;5095379;28;20192;-53
2023/05/17 11:53:06;;;;;;;7.40;3.33;;;21.40;26.40;;;;;;5095599;28;20411;-53
2023/05/17 11:55:42;;;;;;;7.07;3.45;;;21.50;26.00;;;;;;5095107;28;20406;-55
2023/05/17 11:58:13;;;;;;;7.00;2.93;;;21.70;25.60;;;;;;5094690;28;20178;-52
2023/05/17 12:00:40;;;;;;;7.90;2.80;;;21.80;24.70;;;;;;5094677;28;20938;-53
2023/05/17 12:03:27;;;;;;;6.50;2.37;;;21.70;24.30;;;;;;5095173;28;20460;-52
2023/05/17 12:06:06;;;;;;;7.93;3.13;;;21.70;24.00;;;;;;5094710;28;20970;-52
2023/05/17 12:08:33;;;;;;;5.80;2.67;;;21.60;24.70;;;;;;5094232;28;20241;-54
2023/05/17 12:10:59;;;;;;;6.03;2.33;;;21.50;24.70;;;;;;5093836;28;20465;-55
2023/05/17 12:13:33;;;;;;;5.70;2.50;;;21.50;25.30;;;;;;5094169;28;20798;-53
2023/05/17 12:16:01;;;;;;;6.83;2.03;;;21.70;25.80;;;;;;5094829;28;20449;-55
2023/05/17 12:18:41;;;;;;;7.10;2.35;;;21.70;25.00;;;;;;5092628;28;20401;-55
2023/05/17 12:21:12;;;;;;;9.60;2.77;;;22.00;24.30;;;;;;5094571;28;20556;-53
2023/05/17 12:23:43;;;;;;;6.00;3.00;;;22.00;23.10;;;;;;5094657;28;20410;-52
2023/05/17 12:26:13;;;;;;;6.03;2.70;;;21.80;24.00;;;;;;5094729;28;20482;-55
2023/05/17 12:28:52;;;;;;;10.43;3.65;;;21.70;24.80;;;;;;5094289;28;20401;-52
2023/05/17 12:31:20;;;;;;;6.25;3.28;;;21.70;23.50;;;;;;5094206;28;20237;-55
2023/05/17 12:33:49;;;;;;;3.63;2.00;;;21.70;24.60;;;;;;5094006;28;20172;-55
2023/05/17 12:36:16;;;;;;;3.77;2.30;;;21.90;26.20;;;;;;5094170;28;20951;-53
2023/05/17 12:38:44;;;;;;;4.93;2.73;;;22.00;24.50;;;;;;5094022;28;20449;-53
2023/05/17 12:41:11;;;;;;;8.33;2.80;;;22.10;24.70;;;;;;5095249;28;20441;-55
2023/05/17 12:43:38;;;;;;;5.93;2.50;;;21.30;23.80;;;;;;5094533;28;20410;-55
2023/05/17 12:46:10;;;;;;;6.77;2.73;;;22.20;23.50;;;;;;5094334;28;20546;-55
2023/05/17 12:48:38;;;;;;;5.90;2.77;;;22.40;24.60;;;;;;5093985;28;20402;-53
2023/05/17 12:51:08;;;;;;;5.40;2.20;;;22.50;24.10;;;;;;5094719;28;20508;-53